Time;durP1;ratioP1;P1;durP2;ratioP2;P2;SDS_P1;SDS_P2;PMS_P1;PMS_P2;Temp;Humidity;BMP_temperature;BMP_pressure;BME280_temperature;BME280_humidity;BME280_pressure;Samples;Min_cycle;Max_cycle;Signal;HPM_P1;HPM_P2
2023/12/06 00:00:34;;;;;;;1.42;1.33;;;;;;;-13.67;100.00;100280.53;4918411;29;20044;-82
2023/12/06 00:03:03;;;;;;;1.50;1.40;;;;;;;-13.69;100.00;100291.00;4933694;29;20550;-82
2023/12/06 00:05:31;;;;;;;1.60;1.50;;;;;;;-13.66;100.00;100293.47;4918401;29;20143;-82
2023/12/06 00:07:58;;;;;;;1.70;1.60;;;;;;;-13.55;100.00;100299.06;4918970;29;20052;-81
2023/12/06 00:10:25;;;;;;;1.80;1.70;;;;;;;-13.50;100.00;100298.91;4918614;29;20137;-82
2023/12/06 00:12:53;;;;;;;1.58;1.48;;;;;;;-13.65;100.00;100300.34;4919012;29;20506;-82
2023/12/06 00:15:20;;;;;;;1.90;1.80;;;;;;;-13.75;100.00;100299.00;4919225;29;20135;-82
2023/12/06 00:17:47;;;;;;;1.65;1.55;;;;;;;-13.85;100.00;100295.91;4933115;29;20052;-82
2023/12/06 00:20:14;;;;;;;1.70;1.60;;;;;;;-13.89;100.00;100293.53;4918906;29;20138;-81
2023/12/06 00:22:41;;;;;;;1.60;1.50;;;;;;;-13.94;100.00;100300.63;4918586;29;20056;-82
2023/12/06 00:25:09;;;;;;;1.70;1.60;;;;;;;-14.03;100.00;100299.22;4918212;29;20467;-81
2023/12/06 00:27:38;;;;;;;1.80;1.70;;;;;;;-14.07;100.00;100297.66;4918088;29;20424;-81
2023/12/06 00:30:06;;;;;;;1.70;1.60;;;;;;;-14.04;100.00;100306.16;4918701;29;20099;-81
2023/12/06 00:32:33;;;;;;;1.60;1.50;;;;;;;-13.99;100.00;100304.25;4918355;29;20056;-83
2023/12/06 00:35:00;;;;;;;1.63;1.52;;;;;;;-13.92;100.00;100307.47;4917905;29;20044;-81
2023/12/06 00:37:29;;;;;;;1.60;1.50;;;;;;;-13.90;100.00;100307.38;4918049;29;20112;-81
2023/12/06 00:39:56;;;;;;;1.90;1.80;;;;;;;-13.90;100.00;100309.97;4918068;29;20044;-82
2023/12/06 00:42:23;;;;;;;1.50;1.40;;;;;;;-13.95;100.00;100302.38;4918060;29;20060;-82
2023/12/06 00:44:50;;;;;;;1.75;1.65;;;;;;;-13.90;100.00;100305.63;4918510;29;20048;-81
2023/12/06 00:47:17;;;;;;;1.50;1.40;;;;;;;-13.85;100.00;100308.06;4918090;29;20463;-81
2023/12/06 00:49:45;;;;;;;1.70;1.60;;;;;;;-13.82;100.00;100307.94;4918390;29;20132;-81
2023/12/06 00:52:12;;;;;;;1.75;1.65;;;;;;;-13.83;100.00;100311.44;4918311;29;20119;-81
2023/12/06 00:54:39;;;;;;;1.50;1.40;;;;;;;-13.85;100.00;100318.44;4916565;29;20948;-82
2023/12/06 00:57:06;;;;;;;1.40;1.30;;;;;;;-13.78;100.00;100319.91;4918236;29;20052;-81
2023/12/06 00:59:33;;;;;;;1.60;1.50;;;;;;;-13.84;100.00;100310.59;4917567;29;20422;-81
2023/12/06 01:02:01;;;;;;;1.40;1.30;;;;;;;-13.87;100.00;100309.84;4917923;29;20151;-82
2023/12/06 01:04:28;;;;;;;1.70;1.60;;;;;;;-13.94;100.00;100311.84;4917730;29;20463;-81
2023/12/06 01:06:55;;;;;;;1.63;1.52;;;;;;;-13.91;100.00;100326.47;4917778;29;20053;-81
2023/12/06 01:09:22;;;;;;;1.90;1.80;;;;;;;-13.88;100.00;100326.34;4917025;29;20055;-81
2023/12/06 01:11:50;;;;;;;1.70;1.60;;;;;;;-13.77;100.00;100321.63;4932290;29;20060;-81
2023/12/06 01:14:21;;;;;;;1.80;1.70;;;;;;;-13.86;100.00;100319.34;4917745;29;20139;-82
2023/12/06 01:16:49;;;;;;;1.80;1.70;;;;;;;-13.87;100.00;100321.13;4917626;29;20542;-81
2023/12/06 01:19:17;;;;;;;1.90;1.80;;;;;;;-13.80;100.00;100324.31;4917146;29;20052;-81
2023/12/06 01:21:44;;;;;;;1.50;1.40;;;;;;;-13.62;100.00;100331.41;4916987;29;20104;-81
2023/12/06 01:24:11;;;;;;;1.80;1.70;;;;;;;-13.65;100.00;100328.91;4917537;29;20052;-81
2023/12/06 01:26:39;;;;;;;1.73;1.63;;;;;;;-13.67;100.00;100325.56;4916863;29;20056;-81
2023/12/06 01:29:08;;;;;;;1.80;1.70;;;;;;;-13.75;100.00;100335.34;4917784;29;20063;-81
2023/12/06 01:31:35;;;;;;;1.52;1.42;;;;;;;-13.68;100.00;100338.56;4917148;29;20059;-81
2023/12/06 01:34:02;;;;;;;1.70;1.60;;;;;;;-13.54;100.00;100337.16;4931672;29;20547;-82
2023/12/06 01:36:29;;;;;;;1.70;1.60;;;;;;;-13.43;100.00;100328.94;4916830;29;20052;-80
2023/12/06 01:38:57;;;;;;;1.75;1.65;;;;;;;-13.31;99.75;100330.22;4917106;29;20107;-81
2023/12/06 01:41:25;;;;;;;1.75;1.65;;;;;;;-13.16;99.72;100331.31;4917307;29;20048;-82
2023/12/06 01:43:52;;;;;;;1.67;1.58;;;;;;;-13.01;99.03;100332.41;4914740;29;20078;-82
2023/12/06 01:46:20;;;;;;;1.60;1.50;;;;;;;-12.99;99.03;100328.00;4917342;29;20063;-81
2023/12/06 01:48:47;;;;;;;1.95;1.85;;;;;;;-13.05;98.70;100325.69;4917224;29;20056;-81
2023/12/06 01:51:16;;;;;;;1.70;1.60;;;;;;;-13.08;98.89;100325.81;4915992;29;20059;-81
2023/12/06 01:53:44;;;;;;;1.67;1.58;;;;;;;-12.99;98.97;100330.59;4915436;29;20048;-82
2023/12/06 01:56:12;;;;;;;1.67;1.58;;;;;;;-12.94;98.99;100331.25;4917255;29;20196;-82
2023/12/06 01:58:40;;;;;;;1.45;1.35;;;;;;;-12.91;98.83;100329.41;4916690;29;20060;-81
2023/12/06 02:01:07;;;;;;;1.60;1.50;;;;;;;-12.88;98.70;100333.63;4931333;29;20525;-81
2023/12/06 02:03:35;;;;;;;1.55;1.45;;;;;;;-12.92;98.85;100332.06;4931077;29;20139;-81
2023/12/06 02:06:03;;;;;;;1.60;1.50;;;;;;;-12.94;98.87;100326.06;4916856;29;20044;-81
2023/12/06 02:08:34;;;;;;;1.80;1.70;;;;;;;-12.95;98.70;100327.81;4930792;29;20056;-82
2023/12/06 02:11:03;;;;;;;1.77;1.67;;;;;;;-12.89;98.76;100327.56;4915202;29;20082;-81
2023/12/06 02:13:34;;;;;;;1.70;1.60;;;;;;;-12.81;98.79;100316.88;4916201;29;20473;-81
2023/12/06 02:16:01;;;;;;;1.60;1.50;;;;;;;-12.75;98.63;100328.75;4916888;29;20052;-81
2023/12/06 02:18:29;;;;;;;1.65;1.55;;;;;;;-12.77;98.34;100317.56;4914617;29;20052;-81
2023/12/06 02:21:17;;;;;;;1.70;1.60;;;;;;;-12.83;98.45;100312.66;4914689;29;20060;-82
2023/12/06 02:23:46;;;;;;;1.55;1.45;;;;;;;-12.79;98.64;100317.63;4916880;29;20059;-82
2023/12/06 02:26:13;;;;;;;1.50;1.40;;;;;;;-12.69;98.06;100329.31;4919774;29;20068;-82
2023/12/06 02:28:41;;;;;;;1.70;1.60;;;;;;;-12.57;98.32;100312.38;4920708;29;20131;-82
2023/12/06 02:31:08;;;;;;;1.50;1.40;;;;;;;-12.50;98.17;100325.97;4917883;29;20056;-82
2023/12/06 02:33:35;;;;;;;1.60;1.50;;;;;;;-12.50;97.81;100328.56;4915057;29;20130;-82
2023/12/06 02:36:03;;;;;;;1.73;1.63;;;;;;;-12.50;97.70;100323.38;4915649;29;20534;-81
2023/12/06 02:38:33;;;;;;;1.80;1.70;;;;;;;-12.42;97.63;100333.44;4914892;29;20142;-81
2023/12/06 02:41:02;;;;;;;1.52;1.42;;;;;;;-12.42;97.55;100328.22;4914796;29;20192;-82
2023/12/06 02:43:29;;;;;;;1.40;1.30;;;;;;;-12.41;97.20;100335.94;4916257;29;20063;-82
2023/12/06 02:45:56;;;;;;;1.60;1.50;;;;;;;-12.47;96.90;100329.25;4899628;29;20044;-82
2023/12/06 02:48:23;;;;;;;1.58;1.48;;;;;;;-12.44;96.98;100339.53;4914900;29;20515;-81
2023/12/06 02:50:51;;;;;;;1.65;1.55;;;;;;;-12.41;96.81;100330.75;4915899;29;20044;-81
2023/12/06 02:53:18;;;;;;;1.80;1.70;;;;;;;-12.39;96.58;100336.75;4915891;29;20055;-81
2023/12/06 02:55:45;;;;;;;1.48;1.38;;;;;;;-12.35;96.63;100338.31;4915815;29;20056;-81
2023/12/06 02:58:13;;;;;;;1.58;1.48;;;;;;;-12.31;96.38;100339.84;4916115;29;20084;-81
2023/12/06 03:00:40;;;;;;;1.48;1.38;;;;;;;-12.32;96.27;100338.16;4915043;29;20059;-81
2023/12/06 03:03:08;;;;;;;1.58;1.48;;;;;;;-12.32;95.92;100335.56;4915686;29;20052;-82
2023/12/06 03:05:36;;;;;;;1.70;1.60;;;;;;;-12.35;96.05;100340.91;4924025;29;20052;-82
2023/12/06 03:08:03;;;;;;;1.60;1.50;;;;;;;-12.36;95.97;100347.00;4895682;29;20156;-80
2023/12/06 03:10:30;;;;;;;1.50;1.40;;;;;;;-12.31;96.09;100344.22;4896204;29;20055;-81
2023/12/06 03:12:57;;;;;;;1.50;1.40;;;;;;;-12.28;95.91;100350.16;4896511;29;20117;-82
2023/12/06 03:15:25;;;;;;;1.70;1.60;;;;;;;-12.24;95.82;100340.44;4896776;29;20052;-81
2023/12/06 03:17:52;;;;;;;1.70;1.60;;;;;;;-12.22;95.70;100359.44;4903116;29;20062;-81
2023/12/06 03:20:19;;;;;;;1.48;1.38;;;;;;;-12.29;95.34;100348.44;4915610;29;20060;-82
2023/12/06 03:22:46;;;;;;;1.48;1.38;;;;;;;-12.30;95.68;100358.94;4915536;29;20047;-82
2023/12/06 03:25:14;;;;;;;1.75;1.65;;;;;;;-12.31;95.47;100360.66;4915768;29;20064;-82
2023/12/06 03:27:42;;;;;;;1.70;1.60;;;;;;;-12.33;95.63;100367.72;4915764;29;20459;-82
2023/12/06 03:30:10;;;;;;;1.70;1.60;;;;;;;-12.32;95.59;100369.38;4917734;29;20050;-82
2023/12/06 03:32:50;;;;;;;1.40;1.30;;;;;;;-12.35;95.63;100369.53;4915130;29;20052;-82
2023/12/06 03:35:18;;;;;;;1.80;1.70;;;;;;;-12.36;95.60;100377.38;4914958;29;20143;-82
2023/12/06 03:37:45;;;;;;;1.20;1.20;;;;;;;-12.37;95.61;100376.56;4916642;29;20125;-82
2023/12/06 03:40:12;;;;;;;1.50;1.40;;;;;;;-12.39;95.64;100370.56;4914858;29;20062;-82
2023/12/06 03:42:40;;;;;;;1.40;1.30;;;;;;;-12.35;95.41;100386.91;4915297;29;20974;-82
2023/12/06 03:45:07;;;;;;;1.52;1.42;;;;;;;-12.36;95.37;100383.44;4915523;29;20062;-82
2023/12/06 03:47:34;;;;;;;1.63;1.52;;;;;;;-12.34;95.39;100391.19;4915160;29;20056;-82
2023/12/06 03:50:02;;;;;;;1.40;1.30;;;;;;;-12.33;95.32;100393.72;4915390;29;20494;-82
2023/12/06 03:52:30;;;;;;;1.50;1.40;;;;;;;-12.33;95.23;100391.13;4914991;29;20048;-80
2023/12/06 03:55:02;;;;;;;1.55;1.45;;;;;;;-12.27;95.10;100397.81;4914504;29;20590;-80
2023/12/06 03:57:30;;;;;;;1.48;1.38;;;;;;;-12.24;95.13;100401.13;4914972;29;20067;-81
2023/12/06 03:59:57;;;;;;;1.67;1.58;;;;;;;-12.22;95.03;100401.91;4915161;29;20056;-80
2023/12/06 04:02:25;;;;;;;1.67;1.58;;;;;;;-12.22;95.12;100409.72;4914826;29;20052;-80
2023/12/06 04:04:52;;;;;;;1.60;1.50;;;;;;;-12.23;94.94;100410.66;4914934;29;20052;-81
2023/12/06 04:07:19;;;;;;;1.60;1.50;;;;;;;-12.16;95.30;100412.97;4915016;29;20515;-81
2023/12/06 04:09:47;;;;;;;1.50;1.40;;;;;;;-12.07;95.39;100412.59;4915323;29;20107;-80
2023/12/06 04:12:15;;;;;;;1.50;1.40;;;;;;;-11.99;95.39;100409.66;4915238;29;20052;-82
2023/12/06 04:14:42;;;;;;;1.40;1.30;;;;;;;-11.97;95.07;100416.47;4912939;29;20052;-80
2023/12/06 04:17:11;;;;;;;1.10;1.10;;;;;;;-11.94;95.06;100415.50;4914059;29;20139;-80
2023/12/06 04:19:39;;;;;;;1.50;1.40;;;;;;;-11.93;95.06;100422.38;4912477;29;20060;-80
2023/12/06 04:22:06;;;;;;;1.52;1.42;;;;;;;-11.98;94.84;100424.34;4909517;29;20048;-82
2023/12/06 04:24:33;;;;;;;1.42;1.33;;;;;;;-12.02;94.81;100434.06;4913140;29;20510;-81
2023/12/06 04:27:01;;;;;;;1.40;1.30;;;;;;;-12.06;95.03;100422.91;4910104;29;20119;-80
2023/12/06 04:29:28;;;;;;;1.65;1.55;;;;;;;-12.06;94.85;100427.28;4914450;29;20107;-80
2023/12/06 04:31:55;;;;;;;1.45;1.35;;;;;;;-12.10;94.82;100433.50;4914683;29;20050;-81
2023/12/06 04:34:26;;;;;;;1.38;1.27;;;;;;;-12.05;95.17;100437.63;4913992;29;20052;-81
2023/12/06 04:36:54;;;;;;;1.40;1.30;;;;;;;-12.01;95.03;100440.94;4916432;29;20048;-81
2023/12/06 04:39:23;;;;;;;1.70;1.60;;;;;;;-12.04;94.65;100435.88;4945364;29;20055;-81
2023/12/06 04:41:54;;;;;;;1.50;1.40;;;;;;;-12.08;94.78;100449.91;4920295;29;20067;-80
2023/12/06 04:44:22;;;;;;;1.50;1.40;;;;;;;-12.12;94.75;100450.97;4928984;29;20068;-81
2023/12/06 04:46:50;;;;;;;1.65;1.55;;;;;;;-12.11;94.96;100444.84;4916700;29;20134;-81
2023/12/06 04:49:17;;;;;;;1.63;1.52;;;;;;;-12.12;95.03;100453.59;4917390;29;20495;-81
2023/12/06 04:51:45;;;;;;;1.42;1.33;;;;;;;-12.12;94.95;100451.81;4917274;29;20517;-81
2023/12/06 04:54:12;;;;;;;1.10;1.10;;;;;;;-12.04;95.20;100456.69;4917807;29;20456;-81
2023/12/06 04:56:39;;;;;;;1.40;1.30;;;;;;;-12.03;94.92;100464.41;4916412;29;20052;-81
2023/12/06 04:59:07;;;;;;;1.48;1.38;;;;;;;-12.06;94.89;100474.97;4917817;29;20119;-81
2023/12/06 05:01:34;;;;;;;1.27;1.20;;;;;;;-12.10;94.94;100475.16;4905893;29;20090;-81
2023/12/06 05:04:03;;;;;;;1.40;1.30;;;;;;;-12.11;94.86;100469.13;4929716;29;20048;-82
2023/12/06 05:06:30;;;;;;;1.50;1.40;;;;;;;-11.99;94.96;100479.94;4917153;29;20060;-81
2023/12/06 05:08:58;;;;;;;1.30;1.20;;;;;;;-12.00;94.77;100473.84;4916703;29;20096;-81
2023/12/06 05:11:27;;;;;;;1.48;1.38;;;;;;;-11.88;95.00;100478.53;4932488;29;20056;-81
2023/12/06 05:13:55;;;;;;;1.27;1.20;;;;;;;-11.82;94.77;100485.25;4917773;29;20050;-80
2023/12/06 05:16:22;;;;;;;1.23;1.20;;;;;;;-11.85;94.35;100488.81;4917843;29;20052;-81
2023/12/06 05:18:49;;;;;;;1.40;1.30;;;;;;;-11.88;94.26;100486.34;4918510;29;20060;-81
2023/12/06 05:21:16;;;;;;;1.40;1.30;;;;;;;-11.93;93.99;100488.31;4917108;29;20519;-81
2023/12/06 05:23:43;;;;;;;1.23;1.20;;;;;;;-11.92;94.10;100491.75;4918643;29;20151;-81
2023/12/06 05:26:11;;;;;;;1.50;1.40;;;;;;;-11.91;93.68;100491.69;4920257;29;20139;-82
2023/12/06 05:28:50;;;;;;;1.40;1.30;;;;;;;-11.93;93.53;100495.28;4921601;29;20052;-82
2023/12/06 05:31:17;;;;;;;1.50;1.40;;;;;;;-11.92;93.35;100496.97;4913560;29;20075;-82
2023/12/06 05:33:44;;;;;;;1.50;1.40;;;;;;;-11.92;93.19;100502.16;4914177;29;20082;-81
2023/12/06 05:36:12;;;;;;;1.70;1.60;;;;;;;-11.98;92.83;100510.25;4931783;29;20048;-82
2023/12/06 05:38:39;;;;;;;1.40;1.30;;;;;;;-12.00;92.84;100507.69;4916613;29;20093;-81
2023/12/06 05:41:06;;;;;;;1.20;1.20;;;;;;;-12.09;92.43;100508.94;4916026;29;20131;-81
2023/12/06 05:43:34;;;;;;;1.25;1.25;;;;;;;-12.15;92.97;100505.75;4902416;29;20057;-81
2023/12/06 05:46:02;;;;;;;1.40;1.30;;;;;;;-12.10;92.80;100511.59;4898189;29;20519;-81
2023/12/06 05:48:31;;;;;;;1.60;1.50;;;;;;;-12.12;92.40;100513.44;4912061;29;20411;-81
2023/12/06 05:50:58;;;;;;;1.40;1.30;;;;;;;-12.22;92.56;100510.38;4918473;29;20062;-81
2023/12/06 05:53:25;;;;;;;1.35;1.25;;;;;;;-12.31;92.79;100500.34;4933113;29;20072;-80
2023/12/06 05:55:56;;;;;;;1.63;1.52;;;;;;;-12.31;92.81;100514.19;4692112;29;10001188;-80
2023/12/06 05:58:26;;;;;;;1.23;1.20;;;;;;;-12.32;93.30;100515.09;4930310;29;20265;-81
2023/12/06 06:00:54;;;;;;;1.40;1.30;;;;;;;-12.30;93.06;100517.66;4943853;29;20449;-82
2023/12/06 06:03:21;;;;;;;1.55;1.45;;;;;;;-12.35;93.18;100517.84;4931426;29;20228;-81
2023/12/06 06:05:48;;;;;;;1.38;1.27;;;;;;;-12.39;93.29;100511.06;4924785;29;20051;-81
2023/12/06 06:08:16;;;;;;;1.70;1.60;;;;;;;-12.40;93.43;100518.91;4916200;29;20052;-81
2023/12/06 06:10:43;;;;;;;1.40;1.30;;;;;;;-12.36;93.55;100516.13;4917786;29;20051;-81
2023/12/06 06:13:10;;;;;;;1.73;1.63;;;;;;;-12.31;93.66;100516.78;4920834;29;20051;-81
2023/12/06 06:15:38;;;;;;;1.40;1.30;;;;;;;-12.32;93.42;100524.69;4910573;29;20063;-79
2023/12/06 06:18:05;;;;;;;1.63;1.52;;;;;;;-12.31;93.66;100527.19;4912181;29;20059;-80
2023/12/06 06:20:34;;;;;;;1.40;1.30;;;;;;;-12.30;93.56;100531.50;4911340;29;20064;-79
2023/12/06 06:23:01;;;;;;;1.50;1.40;;;;;;;-12.29;93.46;100525.38;4911192;29;20048;-80
2023/12/06 06:25:28;;;;;;;1.67;1.58;;;;;;;-12.29;93.33;100530.59;4937149;29;20063;-80
2023/12/06 06:27:56;;;;;;;1.70;1.60;;;;;;;-12.36;93.36;100529.13;4918866;29;20098;-81
2023/12/06 06:30:23;;;;;;;1.60;1.50;;;;;;;-12.46;93.47;100528.66;4932586;29;20063;-81
2023/12/06 06:32:50;;;;;;;1.48;1.38;;;;;;;-12.50;93.71;100534.06;4919308;29;20106;-80
2023/12/06 06:35:18;;;;;;;1.50;1.40;;;;;;;-12.51;93.83;100540.16;4921362;29;20043;-80
2023/12/06 06:37:48;;;;;;;1.55;1.45;;;;;;;-12.51;93.95;100546.19;4943457;29;20087;-81
2023/12/06 06:40:15;;;;;;;1.50;1.40;;;;;;;-12.51;94.15;100537.56;4920921;29;20159;-80
2023/12/06 06:42:45;;;;;;;1.70;1.60;;;;;;;-12.51;94.17;100541.00;4915943;29;20084;-80
2023/12/06 06:45:13;;;;;;;1.58;1.48;;;;;;;-12.48;94.20;100548.72;4921233;29;20154;-80
2023/12/06 06:47:41;;;;;;;1.70;1.60;;;;;;;-12.44;94.52;100554.63;4921503;29;20115;-80
2023/12/06 06:50:08;;;;;;;1.80;1.70;;;;;;;-12.45;94.38;100552.94;4920468;29;20592;-82
2023/12/06 06:52:36;;;;;;;1.50;1.40;;;;;;;-12.44;94.46;100557.22;4921366;29;20064;-80
2023/12/06 06:55:07;;;;;;;1.63;1.52;;;;;;;-12.40;94.62;100555.34;4942303;29;20102;-81
2023/12/06 06:57:34;;;;;;;1.38;1.27;;;;;;;-12.38;94.55;100546.59;4910545;29;20055;-80
2023/12/06 07:00:02;;;;;;;1.35;1.25;;;;;;;-12.44;94.59;100547.66;4904663;29;20123;-81
2023/12/06 07:02:31;;;;;;;1.67;1.58;;;;;;;-12.38;94.62;100549.19;4911941;29;20067;-80
2023/12/06 07:05:00;;;;;;;1.60;1.50;;;;;;;-12.18;94.59;100555.31;4926939;29;20676;-79
2023/12/06 07:07:30;;;;;;;1.73;1.63;;;;;;;-12.07;94.30;100550.56;4912169;29;20059;-82
2023/12/06 07:09:57;;;;;;;1.63;1.52;;;;;;;-11.90;94.05;100548.09;4911515;29;20059;-80
2023/12/06 07:12:24;;;;;;;1.40;1.30;;;;;;;-11.64;94.11;100553.94;4911811;29;20056;-81
2023/12/06 07:14:52;;;;;;;1.50;1.40;;;;;;;-11.43;93.72;100560.81;4909079;29;20056;-82
2023/12/06 07:17:19;;;;;;;1.40;1.30;;;;;;;-11.35;93.07;100563.91;4910641;29;20048;-80
2023/12/06 07:19:48;;;;;;;1.70;1.60;;;;;;;-11.23;92.72;100565.13;4909398;29;20055;-80
2023/12/06 07:22:15;;;;;;;1.60;1.50;;;;;;;-10.91;92.39;100566.31;4924855;29;20522;-80
2023/12/06 07:24:43;;;;;;;1.40;1.30;;;;;;;-10.67;91.75;100563.47;4910634;29;20152;-81
2023/12/06 07:27:10;;;;;;;1.48;1.38;;;;;;;-10.32;91.14;100569.66;4925493;29;20056;-79
2023/12/06 07:29:38;;;;;;;1.38;1.27;;;;;;;-9.95;90.10;100572.19;4910705;29;20534;-79
2023/12/06 07:32:05;;;;;;;1.17;1.17;;;;;;;-10.26;88.91;100576.31;4908544;29;20659;-79
2023/12/06 07:34:33;;;;;;;1.25;1.17;;;;;;;-10.43;89.00;100571.94;4907058;29;20044;-80
2023/12/06 07:37:15;;;;;;;1.60;1.50;;;;;;;-9.93;88.15;100571.19;4909617;29;20155;-81
2023/12/06 07:39:42;;;;;;;1.50;1.40;;;;;;;-9.54;87.02;100572.75;4917006;29;20510;-81
2023/12/06 07:42:09;;;;;;;1.55;1.45;;;;;;;-9.54;85.74;100567.53;4919516;29;20506;-81
2023/12/06 07:44:37;;;;;;;1.50;1.40;;;;;;;-9.50;85.31;100573.44;4921527;29;20055;-82
2023/12/06 07:47:05;;;;;;;1.10;1.10;;;;;;;-9.96;84.91;100583.56;4911271;29;20518;-81
2023/12/06 07:49:32;;;;;;;1.50;1.40;;;;;;;-10.30;85.38;100588.69;4910802;29;20052;-82
2023/12/06 07:51:59;;;;;;;1.60;1.50;;;;;;;-10.79;86.10;100584.91;4910778;29;20090;-82
2023/12/06 07:54:27;;;;;;;1.40;1.30;;;;;;;-11.08;87.01;100592.28;4910723;29;20048;-83
2023/12/06 07:56:57;;;;;;;1.15;1.15;;;;;;;-11.23;87.50;100593.81;4909261;29;20048;-83
2023/12/06 07:59:25;;;;;;;1.42;1.33;;;;;;;-11.39;88.12;100593.66;4886686;29;20058;-82
2023/12/06 08:01:54;;;;;;;1.40;1.30;;;;;;;-11.52;88.48;100596.81;4909674;29;20136;-81
2023/12/06 08:04:23;;;;;;;1.40;1.30;;;;;;;-11.59;88.70;100594.50;4908366;29;20115;-81
2023/12/06 08:06:52;;;;;;;1.60;1.50;;;;;;;-11.74;88.97;100594.28;4901035;29;20044;-80
2023/12/06 08:09:20;;;;;;;1.20;1.20;;;;;;;-11.78;89.24;100607.44;4909747;29;20052;-82
2023/12/06 08:11:47;;;;;;;1.45;1.35;;;;;;;-11.78;89.42;100607.44;4894662;29;20049;-81
2023/12/06 08:14:15;;;;;;;1.13;1.13;;;;;;;-11.84;88.69;100609.44;4909846;29;20468;-82
2023/12/06 08:16:42;;;;;;;1.60;1.50;;;;;;;-11.99;88.39;100599.69;4912324;29;20063;-81
2023/12/06 08:19:09;;;;;;;1.40;1.30;;;;;;;-11.97;88.30;100608.25;4915526;29;20517;-80
2023/12/06 08:21:36;;;;;;;1.50;1.40;;;;;;;-11.84;88.35;100601.63;4918041;29;20147;-82
2023/12/06 08:24:07;;;;;;;1.42;1.33;;;;;;;-11.69;88.01;100610.59;4916616;29;20079;-80
2023/12/06 08:26:35;;;;;;;1.13;1.13;;;;;;;-11.51;87.55;100606.34;4918166;29;20052;-80
2023/12/06 08:29:02;;;;;;;1.48;1.38;;;;;;;-11.47;87.34;100606.13;4917076;29;20048;-81
2023/12/06 08:31:31;;;;;;;1.75;1.65;;;;;;;-11.37;87.28;100599.66;4922818;29;20087;-81
2023/12/06 08:33:58;;;;;;;1.60;1.50;;;;;;;-11.15;86.95;100603.91;4937711;29;20063;-81
2023/12/06 08:36:28;;;;;;;1.67;1.58;;;;;;;-11.01;86.68;100611.09;4920332;29;20070;-81
2023/12/06 08:38:55;;;;;;;1.60;1.50;;;;;;;-10.97;86.39;100608.28;4917881;29;20450;-80
2023/12/06 08:41:23;;;;;;;1.13;1.13;;;;;;;-10.96;85.92;100607.41;4918344;29;20143;-81
2023/12/06 08:43:51;;;;;;;1.55;1.45;;;;;;;-11.01;85.95;100617.19;4918210;29;20143;-81
2023/12/06 08:46:19;;;;;;;1.80;1.70;;;;;;;-11.00;86.18;100618.88;4916761;29;20048;-82
2023/12/06 08:48:46;;;;;;;1.40;1.30;;;;;;;-10.81;86.10;100618.03;4932345;29;20153;-81
2023/12/06 08:51:13;;;;;;;1.60;1.50;;;;;;;-10.67;86.09;100614.81;4917774;29;20419;-81
2023/12/06 08:53:41;;;;;;;1.40;1.30;;;;;;;-10.63;86.02;100605.91;4917348;29;20142;-81
2023/12/06 08:56:08;;;;;;;1.15;1.15;;;;;;;-10.56;85.56;100608.19;4917663;29;20115;-81
2023/12/06 08:58:35;;;;;;;1.33;1.25;;;;;;;-10.47;85.64;100606.91;4917005;29;20154;-81
2023/12/06 09:01:03;;;;;;;1.40;1.30;;;;;;;-10.35;85.59;100605.50;4916054;29;20471;-81
2023/12/06 09:03:30;;;;;;;1.27;1.20;;;;;;;-10.21;85.47;100608.25;4917047;29;20063;-82
2023/12/06 09:05:57;;;;;;;1.10;1.10;;;;;;;-10.15;85.51;100602.75;4917567;29;20063;-81
2023/12/06 09:08:25;;;;;;;1.10;1.10;;;;;;;-10.09;84.98;100602.44;4917073;29;20534;-81
2023/12/06 09:10:52;;;;;;;1.58;1.48;;;;;;;-10.02;85.04;100600.41;4917802;29;20582;-82
2023/12/06 09:13:20;;;;;;;1.50;1.40;;;;;;;-9.86;85.02;100597.88;4917747;29;20063;-81
2023/12/06 09:15:47;;;;;;;1.38;1.27;;;;;;;-9.73;84.50;100591.13;4914719;29;20048;-83
2023/12/06 09:18:14;;;;;;;1.15;1.15;;;;;;;-9.70;83.96;100593.56;4926331;29;20885;-83
2023/12/06 09:20:43;;;;;;;1.40;1.30;;;;;;;-9.67;84.06;100593.44;4925232;29;20541;-83
2023/12/06 09:23:10;;;;;;;1.30;1.20;;;;;;;-9.70;83.85;100604.03;4928314;29;20056;-81
2023/12/06 09:25:37;;;;;;;1.20;1.20;;;;;;;-9.77;nan;100602.66;4921065;29;20478;-81
2023/12/06 09:28:04;;;;;;;1.38;1.27;;;;;;;-9.76;83.97;100604.34;4922236;29;20052;-81
2023/12/06 09:30:32;;;;;;;1.10;1.10;;;;;;;-9.62;84.03;100607.13;4920434;29;20048;-80
2023/12/06 09:33:03;;;;;;;1.20;1.20;;;;;;;-9.67;82.86;100608.25;4921393;29;20073;-79
2023/12/06 09:35:32;;;;;;;1.60;1.50;;;;;;;-9.76;82.31;100603.50;4935128;29;20400;-80
2023/12/06 09:38:00;;;;;;;1.40;1.30;;;;;;;-9.68;82.40;100598.72;4921523;29;20570;-79
2023/12/06 09:40:28;;;;;;;1.02;1.02;;;;;;;-9.54;82.70;100603.25;4919783;29;20058;-80
2023/12/06 09:43:02;;;;;;;1.40;1.30;;;;;;;-9.47;81.98;100605.50;4921755;29;20052;-80
2023/12/06 09:45:30;;;;;;;1.40;1.30;;;;;;;-9.48;81.78;100601.19;4917065;29;20606;-81
2023/12/06 09:47:57;;;;;;;1.45;1.35;;;;;;;-9.32;81.96;100593.41;4916924;29;20432;-80
2023/12/06 09:50:26;;;;;;;1.20;1.20;;;;;;;-9.22;82.09;100604.22;4913227;29;20103;-80
2023/12/06 09:52:54;;;;;;;1.13;1.13;;;;;;;-9.06;82.32;100601.66;4920849;29;20048;-81
2023/12/06 09:55:26;;;;;;;1.10;1.10;;;;;;;-8.96;81.99;100595.88;4914204;29;20669;-81
2023/12/06 09:57:56;;;;;;;1.60;1.50;;;;;;;-8.84;81.78;100596.97;4916407;29;20051;-82
2023/12/06 10:00:25;;;;;;;1.10;1.10;;;;;;;-8.86;82.07;100596.25;4878271;29;20208;-81
2023/12/06 10:03:04;;;;;;;1.20;1.20;;;;;;;-8.85;81.96;100603.16;4912597;29;20166;-82
2023/12/06 10:05:31;;;;;;;1.13;1.13;;;;;;;-8.97;81.90;100598.56;4915924;29;20088;-82
2023/12/06 10:07:58;;;;;;;1.02;1.02;;;;;;;-9.01;82.20;100591.81;4920623;29;20052;-82
2023/12/06 10:10:26;;;;;;;1.38;1.27;;;;;;;-8.85;82.20;100608.38;4928696;29;20051;-82
2023/12/06 10:12:55;;;;;;;1.27;1.23;;;;;;;-8.67;81.88;100600.47;4919349;29;20048;-82
2023/12/06 10:15:23;;;;;;;1.13;1.13;;;;;;;-8.63;81.56;100600.25;4917185;29;20451;-81
2023/12/06 10:17:51;;;;;;;1.00;1.00;;;;;;;-8.58;81.40;100597.34;4917971;29;20163;-81
2023/12/06 10:20:22;;;;;;;1.00;1.00;;;;;;;-8.72;81.31;100604.19;4922927;29;20056;-80
2023/12/06 10:22:50;;;;;;;1.38;1.27;;;;;;;-8.88;81.59;100610.34;4918938;29;20418;-81
2023/12/06 10:25:17;;;;;;;1.13;1.13;;;;;;;-9.02;82.02;100608.44;4927818;29;20060;-80
2023/12/06 10:27:47;;;;;;;0.90;0.90;;;;;;;-9.08;82.48;100611.38;4920858;29;20161;-80
2023/12/06 10:30:22;;;;;;;1.02;1.02;;;;;;;-8.98;82.69;100613.44;4920880;29;20772;-80
2023/12/06 10:32:50;;;;;;;1.05;1.05;;;;;;;-8.75;82.16;100613.97;4920271;29;20428;-80
2023/12/06 10:35:18;;;;;;;1.10;1.10;;;;;;;-8.58;81.51;100616.53;4918032;29;20052;-80
2023/12/06 10:37:50;;;;;;;1.15;1.15;;;;;;;-8.56;81.08;100613.81;4930930;29;20103;-81
2023/12/06 10:40:19;;;;;;;1.13;1.13;;;;;;;-8.27;81.08;100616.59;4915777;29;20082;-81
2023/12/06 10:42:52;;;;;;;1.13;1.13;;;;;;;-8.00;80.47;100619.44;4915037;29;20151;-82
2023/12/06 10:45:21;;;;;;;1.10;1.10;;;;;;;-8.10;79.49;100617.34;4937837;29;20048;-82
2023/12/06 10:47:49;;;;;;;1.10;1.10;;;;;;;-8.18;79.47;100623.94;4946332;29;20063;-82
2023/12/06 10:50:19;;;;;;;1.00;1.00;;;;;;;-8.24;80.05;100619.88;4914701;29;20458;-82
2023/12/06 10:52:47;;;;;;;1.10;1.10;;;;;;;-8.33;80.00;100625.63;4915362;29;20155;-82
2023/12/06 10:55:17;;;;;;;0.98;0.98;;;;;;;-8.44;79.94;100628.03;4913866;29;20048;-83
2023/12/06 10:57:45;;;;;;;1.17;1.17;;;;;;;-8.55;80.34;100632.06;4906614;29;20490;-82
2023/12/06 11:00:16;;;;;;;1.00;1.00;;;;;;;-8.59;80.78;100627.09;4916613;29;20060;-82
2023/12/06 11:02:43;;;;;;;1.02;1.02;;;;;;;-8.60;81.06;100622.78;4915752;29;20147;-82
2023/12/06 11:05:11;;;;;;;1.00;1.00;;;;;;;-8.43;81.40;100622.72;4915554;29;20048;-82
2023/12/06 11:07:48;;;;;;;1.30;1.20;;;;;;;-8.11;80.92;100625.28;4915570;29;20047;-82
2023/12/06 11:10:33;;;;;;;1.15;1.15;;;;;;;-7.98;80.50;100628.06;4913809;29;20060;-82
2023/12/06 11:13:19;;;;;;;0.93;0.93;;;;;;;-7.95;80.33;100628.75;4915719;29;20096;-82
2023/12/06 11:16:33;;;;;;;1.10;1.10;;;;;;;-8.09;80.31;100632.13;4919241;29;20107;-82
2023/12/06 11:19:01;;;;;;;1.10;1.10;;;;;;;-8.37;80.70;100634.59;4882717;29;20128;-82
2023/12/06 11:21:30;;;;;;;0.93;0.93;;;;;;;-8.51;81.05;100637.97;4883493;29;20113;-81